Time;durP1;ratioP1;P1;durP2;ratioP2;P2;SDS_P1;SDS_P2;PMS_P1;PMS_P2;Temp;Humidity;BMP_temperature;BMP_pressure;BME280_temperature;BME280_humidity;BME280_pressure;Samples;Min_cycle;Max_cycle;Signal;HPM_P1;HPM_P2
2022/05/01 00:02:11;;;;;;;10.15;5.32;;;;;;;14.71;56.07;100122.81;4432441;32;34511;-75
2022/05/01 00:04:58;;;;;;;7.85;5.15;;;;;;;14.66;56.29;100132.09;4433204;32;34177;-75
2022/05/01 00:07:46;;;;;;;8.60;5.07;;;;;;;14.79;55.79;100125.56;4432425;32;34363;-75
2022/05/01 00:10:33;;;;;;;11.75;5.03;;;;;;;14.79;56.27;100116.47;4432937;32;35741;-75
2022/05/01 00:13:38;;;;;;;9.50;4.93;;;;;;;15.03;55.03;100122.28;4423361;32;34110;-75
2022/05/01 00:16:24;;;;;;;7.97;4.97;;;;;;;14.54;56.76;100118.13;4409768;32;35015;-75
2022/05/01 00:19:11;;;;;;;11.05;4.45;;;;;;;14.32;57.11;100113.59;4431924;32;34662;-75
2022/05/01 00:21:59;;;;;;;8.27;4.50;;;;;;;14.70;55.39;100116.50;4432848;32;34927;-75
2022/05/01 00:24:45;;;;;;;8.90;4.75;;;;;;;15.01;54.27;100107.19;4420765;32;34088;-75
2022/05/01 00:27:31;;;;;;;7.10;4.40;;;;;;;14.82;54.63;100115.81;4420091;32;33736;-75
2022/05/01 00:30:18;;;;;;;8.05;4.72;;;;;;;14.60;56.38;100114.09;4420977;32;34619;-75
2022/05/01 00:36:25;;;;;;;10.60;5.37;;;;;;;14.81;56.47;100112.25;4422273;32;34342;-75
2022/05/01 00:39:13;;;;;;;8.18;4.55;;;;;;;14.62;57.66;100112.59;4432608;32;33908;-75
2022/05/01 00:42:00;;;;;;;9.25;5.62;;;;;;;15.04;56.79;100112.84;4431377;32;34621;-75
2022/05/01 00:44:48;;;;;;;8.73;5.12;;;;;;;14.63;57.84;100118.94;4432319;32;35957;-75
2022/05/01 00:47:34;;;;;;;8.45;4.40;;;;;;;14.50;58.30;100119.91;4431558;32;35385;-75
2022/05/01 00:50:24;;;;;;;6.72;4.70;;;;;;;14.61;57.90;100118.47;4431424;32;34197;-75
2022/05/01 00:53:11;;;;;;;7.43;4.00;;;;;;;14.64;57.53;100115.03;4421271;32;34693;-75
2022/05/01 00:55:59;;;;;;;7.18;4.03;;;;;;;14.47;57.80;100120.53;4420447;32;35050;-75
2022/05/01 00:58:47;;;;;;;8.02;3.95;;;;;;;14.77;56.21;100116.81;4430917;32;35138;-75
2022/05/01 01:01:35;;;;;;;8.20;3.95;;;;;;;14.92;55.44;100117.44;4403004;32;34985;-75
2022/05/01 01:04:22;;;;;;;6.70;4.30;;;;;;;14.42;56.31;100116.00;4409676;32;35374;-75
2022/05/01 01:07:09;;;;;;;8.35;4.18;;;;;;;14.88;55.70;100111.75;4419988;32;35923;-75
2022/05/01 01:09:56;;;;;;;9.68;4.87;;;;;;;14.94;55.28;100117.91;4431486;32;34387;-75
2022/05/01 01:12:55;;;;;;;8.23;4.80;;;;;;;14.11;59.63;100119.72;4431934;32;33489;-75
2022/05/01 01:15:41;;;;;;;8.93;5.20;;;;;;;14.08;60.45;100117.59;4433565;32;35325;-75
2022/05/01 01:18:28;;;;;;;8.60;5.50;;;;;;;14.12;61.22;100129.63;4433700;32;34949;-75
2022/05/01 01:21:14;;;;;;;8.93;5.28;;;;;;;14.51;60.13;100127.03;4433999;32;35354;-75
2022/05/01 01:24:03;;;;;;;10.20;5.28;;;;;;;13.95;61.76;100127.66;4433947;32;34165;-75
2022/05/01 01:26:51;;;;;;;10.13;5.82;;;;;;;13.59;63.27;100118.81;4422061;32;35612;-75
2022/05/01 01:32:44;;;;;;;11.15;5.30;;;;;;;13.87;61.81;100120.19;4434167;32;34567;-75
2022/05/01 01:35:34;;;;;;;8.98;4.37;;;;;;;14.28;60.65;100124.44;4432785;32;33763;-75
2022/05/01 01:38:20;;;;;;;10.15;5.12;;;;;;;14.58;57.59;100122.69;4422052;32;34246;-75
2022/05/01 01:41:09;;;;;;;8.30;4.87;;;;;;;14.24;58.88;100117.94;4434012;32;35678;-75
2022/05/01 01:43:56;;;;;;;9.13;4.75;;;;;;;14.02;60.78;100118.91;4421271;32;34999;-75
2022/05/01 01:46:43;;;;;;;8.82;5.25;;;;;;;14.27;59.50;100114.53;4433499;32;34083;-75
2022/05/01 01:49:29;;;;;;;7.07;4.18;;;;;;;14.27;59.72;100128.31;4434097;32;35277;-75
2022/05/01 01:52:15;;;;;;;8.93;4.65;;;;;;;14.41;59.43;100108.88;4421781;32;35573;-75
2022/05/01 01:55:02;;;;;;;7.75;4.70;;;;;;;14.30;59.64;100122.16;4433911;32;34237;-75
2022/05/01 01:57:49;;;;;;;7.20;4.57;;;;;;;14.11;60.19;100116.97;4421548;32;35159;-75
2022/05/01 02:00:36;;;;;;;10.82;4.95;;;;;;;14.10;60.78;100111.78;4433825;32;34197;-75
2022/05/01 02:03:23;;;;;;;7.95;4.60;;;;;;;14.23;60.30;100119.09;4433969;32;34828;-75
2022/05/01 02:06:10;;;;;;;7.62;4.75;;;;;;;14.04;61.46;100119.41;4421758;32;34174;-75
2022/05/01 02:08:58;;;;;;;7.93;4.57;;;;;;;14.13;60.88;100105.63;4432982;32;33880;-75
2022/05/01 02:11:46;;;;;;;7.00;4.28;;;;;;;14.11;59.30;100103.19;4432573;32;34702;-75
2022/05/01 02:14:33;;;;;;;8.27;4.70;;;;;;;13.95;59.20;100113.06;4422456;32;34802;-75
2022/05/01 02:17:20;;;;;;;8.00;4.50;;;;;;;14.45;57.82;100109.03;4433470;32;36260;-75
2022/05/01 02:20:09;;;;;;;7.55;4.93;;;;;;;14.38;55.97;100104.81;4433628;32;34064;-75
2022/05/01 02:22:57;;;;;;;8.38;5.22;;;;;;;14.16;56.91;100094.75;4422131;32;33886;-76
2022/05/01 02:25:47;;;;;;;6.95;4.78;;;;;;;14.59;54.85;100101.41;4432540;32;34313;-75
2022/05/01 02:28:34;;;;;;;8.30;5.47;;;;;;;14.28;55.18;100101.56;4433631;32;35154;-75
2022/05/01 02:31:22;;;;;;;7.93;4.95;;;;;;;14.34;55.47;100097.50;4433815;32;34925;-75
2022/05/01 02:34:10;;;;;;;9.73;5.45;;;;;;;13.98;56.60;100097.84;4433647;32;35550;-75
2022/05/01 02:36:57;;;;;;;7.87;4.00;;;;;;;14.34;54.58;100103.84;4421603;32;35875;-75
2022/05/01 02:39:43;;;;;;;6.65;4.50;;;;;;;14.57;54.16;100107.28;4421658;32;34470;-75
2022/05/01 02:42:30;;;;;;;7.20;3.97;;;;;;;14.41;53.80;100106.13;4433258;32;33766;-75
2022/05/01 02:45:17;;;;;;;7.20;4.53;;;;;;;14.69;53.54;100101.09;4432262;32;33469;-75
2022/05/01 02:48:04;;;;;;;7.45;4.53;;;;;;;14.55;52.15;100101.28;4432238;32;37314;-75
2022/05/01 02:50:51;;;;;;;7.43;4.35;;;;;;;13.82;54.62;100108.50;4433433;32;34565;-75
2022/05/01 02:53:38;;;;;;;9.45;4.10;;;;;;;14.21;55.40;100106.78;4433514;32;33756;-75
2022/05/01 02:56:26;;;;;;;7.45;4.20;;;;;;;14.26;53.91;100098.31;4433241;32;34627;-75
2022/05/01 02:59:12;;;;;;;7.82;4.90;;;;;;;13.14;60.16;100102.41;4433005;32;34844;-75
2022/05/01 03:02:00;;;;;;;9.73;4.97;;;;;;;12.93;61.86;100108.47;4433590;32;35463;-75
2022/05/01 03:04:47;;;;;;;8.27;5.18;;;;;;;13.97;58.11;100108.03;4433099;32;33729;-75
2022/05/01 03:07:34;;;;;;;9.57;5.18;;;;;;;13.36;62.05;100099.62;4421445;32;35375;-75
2022/05/01 03:10:22;;;;;;;9.10;5.47;;;;;;;13.06;63.86;100087.47;4432347;32;34993;-75
2022/05/01 03:13:12;;;;;;;7.82;5.35;;;;;;;13.26;62.90;100098.00;4410987;32;34502;-75
2022/05/01 03:16:00;;;;;;;8.00;4.57;;;;;;;13.57;61.53;100093.53;4421686;32;34155;-75
2022/05/01 03:24:57;;;;;;;8.55;5.87;;;;;;;14.14;60.48;100112.75;4433002;32;35988;-75
2022/05/01 03:27:43;;;;;;;9.32;5.43;;;;;;;14.23;61.03;100110.84;4421488;32;34748;-75
2022/05/01 03:30:31;;;;;;;7.90;4.75;;;;;;;14.14;61.07;100112.75;4421489;32;35416;-75
2022/05/01 03:33:22;;;;;;;6.90;4.32;;;;;;;14.09;60.99;100110.97;4433004;32;34917;-75
2022/05/01 03:36:11;;;;;;;8.27;4.65;;;;;;;14.04;59.63;100111.13;4420835;32;35402;-75
2022/05/01 03:38:58;;;;;;;7.10;3.85;;;;;;;13.88;58.09;100121.78;4432722;32;34070;-75
2022/05/01 03:41:45;;;;;;;9.77;4.72;;;;;;;14.28;55.99;100118.09;4433086;32;34298;-75
2022/05/01 03:44:32;;;;;;;7.43;4.40;;;;;;;14.43;54.69;100114.03;4421243;32;34540;-75
2022/05/01 03:47:19;;;;;;;6.37;3.58;;;;;;;14.52;53.12;100120.41;4433904;32;34299;-75
2022/05/01 03:50:06;;;;;;;6.87;3.95;;;;;;;14.44;51.80;100122.00;4433248;32;35106;-75
2022/05/01 03:52:53;;;;;;;6.55;3.92;;;;;;;14.40;50.87;100121.03;4431912;32;34355;-75
2022/05/01 03:55:39;;;;;;;7.78;4.20;;;;;;;14.59;50.39;100118.78;4431369;32;34888;-74
2022/05/01 03:58:27;;;;;;;6.75;3.70;;;;;;;14.52;50.12;100120.41;4421144;32;35459;-75
2022/05/01 04:01:14;;;;;;;6.53;3.78;;;;;;;14.39;51.09;100117.44;4421423;32;34109;-75
2022/05/01 04:04:04;;;;;;;6.60;4.50;;;;;;;14.62;49.97;100123.62;4432537;32;35850;-75
2022/05/01 04:06:51;;;;;;;10.27;4.30;;;;;;;14.69;49.31;100125.91;4431965;32;35021;-75
2022/05/01 04:09:42;;;;;;;6.53;4.32;;;;;;;14.69;49.39;100125.91;4432970;32;34275;-75
2022/05/01 04:12:35;;;;;;;7.32;3.97;;;;;;;14.71;49.53;100128.31;4431795;32;32815;-75
2022/05/01 04:15:22;;;;;;;8.38;4.20;;;;;;;14.64;49.85;100137.09;4421125;32;34925;-75
2022/05/01 04:18:10;;;;;;;6.25;4.47;;;;;;;14.64;50.01;100136.31;4432769;32;35630;-75
2022/05/01 04:20:57;;;;;;;6.47;3.42;;;;;;;14.63;49.70;100129.97;4410148;32;35359;-75
2022/05/01 04:23:43;;;;;;;7.30;4.40;;;;;;;14.54;50.07;100131.91;4431094;32;34964;-75
2022/05/01 04:26:30;;;;;;;9.73;4.43;;;;;;;14.48;49.34;100134.00;4432214;32;34628;-75
2022/05/01 04:29:40;;;;;;;8.68;4.00;;;;;;;14.61;49.80;100138.56;4432118;32;34260;-75
2022/05/01 04:32:29;;;;;;;6.40;4.00;;;;;;;14.47;49.89;100134.34;4420865;32;34225;-75
2022/05/01 04:35:26;;;;;;;6.97;4.18;;;;;;;14.45;50.68;100147.62;4432798;32;34217;-75
2022/05/01 04:38:19;;;;;;;7.72;4.25;;;;;;;14.58;50.43;100146.69;4420970;32;34625;-75
2022/05/01 04:41:07;;;;;;;7.57;4.05;;;;;;;14.70;50.29;100146.03;4420298;32;34768;-75
2022/05/01 04:43:54;;;;;;;7.95;4.70;;;;;;;14.48;50.52;100145.03;4432901;32;34675;-75
2022/05/01 04:46:43;;;;;;;9.13;4.70;;;;;;;14.65;50.01;100143.44;4432646;32;34699;-75
2022/05/01 04:49:31;;;;;;;10.45;5.15;;;;;;;14.51;50.17;100144.38;4434211;32;34886;-76
2022/05/01 04:52:25;;;;;;;7.50;4.35;;;;;;;14.39;50.64;100147.78;4421001;32;34715;-75
2022/05/01 04:55:11;;;;;;;8.23;4.62;;;;;;;14.39;50.75;100153.28;4432771;32;33644;-74
2022/05/01 04:57:58;;;;;;;8.40;4.40;;;;;;;14.43;50.46;100147.97;4432290;32;34176;-74
2022/05/01 05:00:49;;;;;;;7.68;5.18;;;;;;;14.42;51.08;100146.31;4422560;32;34600;-74
2022/05/01 05:03:37;;;;;;;9.77;4.30;;;;;;;14.38;52.33;100151.69;4431595;32;35888;-74
2022/05/01 05:06:24;;;;;;;8.07;4.62;;;;;;;14.51;50.62;100152.63;4432126;32;35387;-74
2022/05/01 05:12:18;;;;;;;7.30;4.20;;;;;;;14.88;50.50;100158.66;4433063;32;34591;-74
2022/05/01 05:15:09;;;;;;;9.85;4.78;;;;;;;15.03;49.93;100155.37;4433110;32;34312;-74
2022/05/01 05:17:58;;;;;;;8.10;4.65;;;;;;;15.10;50.45;100173.38;4422505;32;35369;-75
2022/05/01 05:20:45;;;;;;;7.35;4.40;;;;;;;15.06;50.40;100157.50;4433801;32;34101;-74
2022/05/01 05:23:35;;;;;;;7.85;4.85;;;;;;;15.28;50.03;100161.97;4432822;32;33580;-74
2022/05/01 05:26:24;;;;;;;8.65;4.72;;;;;;;15.41;49.34;100154.63;4433126;32;34947;-74
2022/05/01 05:29:11;;;;;;;9.20;4.68;;;;;;;15.32;49.67;100162.13;4434421;32;34523;-74
2022/05/01 05:32:08;;;;;;;9.38;4.60;;;;;;;15.36;49.85;100163.06;4433978;32;34628;-74
2022/05/01 05:34:55;;;;;;;7.90;5.20;;;;;;;15.34;49.96;100159.84;4434347;32;34814;-74
2022/05/01 05:37:49;;;;;;;6.40;4.50;;;;;;;15.63;48.33;100161.03;4432913;32;34992;-75
2022/05/01 05:40:36;;;;;;;6.85;4.65;;;;;;;15.64;48.68;100157.91;4432211;32;34276;-75
2022/05/01 05:43:22;;;;;;;8.07;4.78;;;;;;;15.48;48.73;100165.97;4431970;32;34949;-75
2022/05/01 05:46:10;;;;;;;8.13;4.62;;;;;;;15.61;48.86;100163.31;4434174;32;34656;-74
2022/05/01 05:48:58;;;;;;;9.00;4.62;;;;;;;15.58;48.49;100170.31;4431062;32;35024;-75
2022/05/01 05:51:46;;;;;;;9.40;4.95;;;;;;;15.64;48.31;100170.94;4421652;32;34173;-74
2022/05/01 05:54:39;;;;;;;7.78;4.80;;;;;;;15.64;48.10;100168.16;4432042;32;33887;-74
2022/05/01 05:57:34;;;;;;;7.40;4.68;;;;;;;15.44;49.09;100175.22;4432649;32;34283;-75
2022/05/01 06:00:35;;;;;;;9.05;5.03;;;;;;;15.70;48.27;100178.72;4433095;32;35598;-74
2022/05/01 06:03:23;;;;;;;7.93;4.53;;;;;;;15.32;49.10;100178.69;4433351;32;34543;-75
2022/05/01 06:06:11;;;;;;;12.48;5.30;;;;;;;15.77;47.72;100183.75;4433950;32;34030;-73
2022/05/01 06:08:59;;;;;;;7.05;4.35;;;;;;;15.47;47.96;100183.66;4432098;32;34215;-75
2022/05/01 06:11:47;;;;;;;10.18;4.97;;;;;;;15.48;48.63;100188.06;4430977;32;36148;-74
2022/05/01 06:14:35;;;;;;;8.02;4.25;;;;;;;15.63;49.17;100183.94;4432987;32;34524;-75
2022/05/01 06:17:23;;;;;;;9.52;4.68;;;;;;;15.91;47.99;100189.03;4420929;32;34992;-75
2022/05/01 06:20:12;;;;;;;10.20;4.95;;;;;;;15.91;48.51;100189.03;4432460;32;35628;-74
2022/05/01 06:25:59;;;;;;;7.47;4.37;;;;;;;15.63;49.01;100191.41;4433128;32;35447;-74
2022/05/01 06:28:55;;;;;;;7.62;4.80;;;;;;;15.69;49.06;100188.16;4422104;32;34097;-74
2022/05/01 06:31:43;;;;;;;9.82;4.93;;;;;;;15.99;47.61;100184.59;4432877;32;35531;-74
2022/05/01 06:34:38;;;;;;;10.90;4.82;;;;;;;16.10;46.87;100192.16;4411829;32;34874;-74
2022/05/01 06:37:27;;;;;;;8.70;4.50;;;;;;;15.82;48.50;100191.81;4433780;32;35122;-75
2022/05/01 06:40:14;;;;;;;6.78;4.18;;;;;;;15.98;48.21;100194.84;4432441;32;33643;-75
2022/05/01 06:43:09;;;;;;;7.65;4.45;;;;;;;16.17;48.00;100192.47;4433701;32;34705;-75
2022/05/01 06:46:04;;;;;;;8.73;4.93;;;;;;;16.21;47.47;100202.84;4410156;32;35012;-75
2022/05/01 06:49:02;;;;;;;8.70;4.50;;;;;;;16.28;47.53;100206.72;4430763;32;35392;-75
2022/05/01 06:51:54;;;;;;;9.30;5.90;;;;;;;16.25;47.97;100203.78;4432350;32;34980;-75
2022/05/01 06:54:46;;;;;;;9.23;4.87;;;;;;;16.54;47.02;100211.25;4428941;32;34721;-75
2022/05/01 06:57:34;;;;;;;8.80;4.55;;;;;;;16.33;47.65;100197.38;4431432;32;35705;-73
2022/05/01 07:00:31;;;;;;;10.23;4.75;;;;;;;16.89;46.25;100203.47;4433909;32;34607;-73
2022/05/01 07:03:21;;;;;;;7.47;4.85;;;;;;;16.83;47.67;100193.78;4435469;32;34038;-73
2022/05/01 07:06:10;;;;;;;8.43;5.30;;;;;;;17.12;47.04;100197.56;4435401;32;34727;-74
2022/05/01 07:12:11;;;;;;;9.13;5.07;;;;;;;17.12;45.91;100187.28;4434549;32;35172;-71
2022/05/01 07:18:02;;;;;;;6.97;4.60;;;;;;;17.03;47.04;100189.34;4423560;32;35840;-72
2022/05/01 07:20:54;;;;;;;6.90;4.90;;;;;;;17.51;45.73;100182.31;4422343;32;36463;-72
2022/05/01 07:23:42;;;;;;;9.82;4.50;;;;;;;17.50;45.61;100187.06;4434772;32;35060;-72
2022/05/01 07:26:34;;;;;;;5.97;3.97;;;;;;;17.45;46.74;100178.97;4433082;32;33962;-73
2022/05/01 07:29:26;;;;;;;8.65;4.32;;;;;;;17.75;46.74;100175.97;4432247;32;35635;-74
2022/05/01 07:32:25;;;;;;;5.47;3.55;;;;;;;18.13;45.46;100180.34;4421902;32;35877;-74
2022/05/01 07:35:16;;;;;;;6.95;3.40;;;;;;;18.46;45.50;100177.41;4422801;32;34466;-74
2022/05/01 07:38:07;;;;;;;5.12;2.95;;;;;;;18.33;44.92;100173.06;4434239;32;34987;-73
2022/05/01 07:41:02;;;;;;;5.30;2.97;;;;;;;18.33;45.56;100175.84;4432616;32;34696;-73
2022/05/01 07:43:51;;;;;;;5.43;3.55;;;;;;;18.33;44.54;100184.16;4431007;32;35601;-74
2022/05/01 07:46:43;;;;;;;6.37;3.53;;;;;;;18.32;44.81;100177.78;4432335;32;34604;-74
2022/05/01 07:49:33;;;;;;;6.15;3.58;;;;;;;18.53;44.86;100176.84;4433056;32;34900;-74
2022/05/01 07:52:25;;;;;;;5.68;3.30;;;;;;;19.24;43.49;100178.03;4428163;32;34763;-72
2022/05/01 07:55:12;;;;;;;6.62;3.78;;;;;;;19.46;43.41;100173.84;4421791;32;34450;-73
2022/05/01 07:58:07;;;;;;;7.47;3.55;;;;;;;19.14;43.33;100171.03;4423889;32;34274;-73
2022/05/01 08:01:01;;;;;;;6.70;3.53;;;;;;;19.49;43.18;100170.34;4432148;32;34053;-72
2022/05/01 08:07:01;;;;;;;3.72;2.30;;;;;;;19.26;42.84;100154.28;4433010;32;36012;-73
2022/05/01 08:12:48;;;;;;;4.30;2.80;;;;;;;20.21;41.16;100150.66;4434156;32;34117;-75
2022/05/01 08:15:40;;;;;;;5.40;2.10;;;;;;;20.41;40.74;100157.06;4422698;32;34620;-75
2022/05/01 08:21:59;;;;;;;4.85;2.33;;;;;;;20.72;38.09;100152.53;4433641;32;34517;-77
2022/05/01 08:25:01;;;;;;;3.15;2.33;;;;;;;20.88;38.86;100153.25;4430561;32;35129;-76
2022/05/01 08:27:49;;;;;;;5.25;2.00;;;;;;;20.94;37.79;100143.44;4432748;32;35630;-75
2022/05/01 08:30:36;;;;;;;4.47;1.70;;;;;;;21.25;38.18;100150.78;4416652;32;34950;-74
2022/05/01 08:33:28;;;;;;;3.65;1.83;;;;;;;21.22;37.12;100148.72;4431928;32;35402;-76
2022/05/01 08:39:17;;;;;;;4.18;2.10;;;;;;;21.34;37.90;100140.19;4431173;32;34784;-76
2022/05/01 08:42:07;;;;;;;4.72;2.35;;;;;;;21.19;38.01;100140.31;4432797;32;35041;-76
2022/05/01 08:45:09;;;;;;;2.78;1.80;;;;;;;21.72;37.09;100140.44;4428652;32;34604;-73
2022/05/01 08:48:04;;;;;;;2.92;1.65;;;;;;;21.96;36.24;100140.00;4418298;32;34330;-73
2022/05/01 08:50:53;;;;;;;3.40;1.55;;;;;;;21.67;36.18;100127.63;4414084;32;35511;-73
2022/05/01 08:53:41;;;;;;;3.72;1.70;;;;;;;21.73;36.33;100133.69;4420060;32;35077;-74
2022/05/01 08:56:28;;;;;;;2.55;1.30;;;;;;;21.65;36.47;100129.97;4430315;32;34563;-74
2022/05/01 08:59:25;;;;;;;2.67;1.30;;;;;;;20.90;37.65;100139.78;4431264;32;34095;-74
2022/05/01 09:02:19;;;;;;;3.20;1.40;;;;;;;21.29;34.98;100128.56;4432402;32;35603;-74
2022/05/01 09:05:23;;;;;;;4.37;1.20;;;;;;;21.72;33.43;100127.31;4431667;32;35890;-74
2022/05/01 09:08:11;;;;;;;1.98;1.60;;;;;;;21.66;33.15;100119.63;4428657;32;35358;-73
2022/05/01 09:12:49;;;;;;;2.58;1.30;;;;;;;21.79;33.75;100113.47;4419109;32;34062;-75
2022/05/01 09:14:12;;;;;;;2.40;1.67;;;;;;;22.23;33.85;100117.72;4430353;32;33743;-74
2022/05/01 09:17:19;;;;;;;3.62;1.80;;;;;;;22.26;34.20;100122.53;4431023;32;35029;-74
2022/05/01 09:20:11;;;;;;;2.78;1.77;;;;;;;22.18;34.50;100115.25;4419746;32;35390;-74
2022/05/01 09:23:17;;;;;;;4.43;1.90;;;;;;;22.29;34.32;100116.19;4409902;32;34950;-74
2022/05/01 09:26:09;;;;;;;3.03;1.73;;;;;;;22.18;34.84;100112.47;4431862;32;35538;-74
2022/05/01 09:28:55;;;;;;;3.03;1.80;;;;;;;22.20;32.53;100110.09;4419524;32;34530;-75
2022/05/01 09:31:46;;;;;;;2.42;1.77;;;;;;;22.17;32.69;100108.88;4431652;32;34654;-74
2022/05/01 09:34:43;;;;;;;3.70;2.00;;;;;;;22.43;33.42;100108.00;4429651;32;33809;-75
2022/05/01 09:37:37;;;;;;;4.22;2.03;;;;;;;22.86;32.39;100104.91;4422672;32;34613;-74
2022/05/01 09:40:32;;;;;;;4.43;2.30;;;;;;;22.81;33.10;100108.84;4432002;32;35868;-74
2022/05/01 09:43:41;;;;;;;2.95;1.95;;;;;;;22.05;31.91;100097.87;4421171;32;33581;-74
2022/05/01 09:46:33;;;;;;;4.00;1.83;;;;;;;23.21;32.21;100106.47;4415011;32;34991;-75
2022/05/01 09:49:46;;;;;;;5.47;2.42;;;;;;;23.26;31.03;100104.13;4433814;32;35605;-75
2022/05/01 09:53:01;;;;;;;5.62;2.28;;;;;;;22.95;32.21;100101.78;4431670;32;35960;-74
2022/05/01 09:55:59;;;;;;;4.90;2.20;;;;;;;23.27;30.93;100097.31;4419804;32;35435;-75
2022/05/01 09:58:59;;;;;;;4.43;1.90;;;;;;;22.95;32.81;100104.59;4430670;32;34793;-74
2022/05/01 10:02:02;;;;;;;5.82;2.33;;;;;;;23.00;31.03;100101.47;4426491;32;34322;-75
2022/05/01 10:05:03;;;;;;;3.00;2.10;;;;;;;23.06;29.80;100094.34;4429171;32;34637;-74
2022/05/01 10:07:50;;;;;;;3.28;2.30;;;;;;;23.16;30.10;100084.44;4418166;32;33888;-74
2022/05/01 10:10:42;;;;;;;3.77;2.50;;;;;;;23.76;30.57;100084.16;4428709;32;35061;-75
2022/05/01 10:13:30;;;;;;;4.35;2.03;;;;;;;23.65;29.38;100084.06;4421737;32;34524;-74
2022/05/01 10:16:27;;;;;;;3.78;2.10;;;;;;;23.62;32.16;100076.41;4426512;32;35551;-74
2022/05/01 10:19:17;;;;;;;4.22;2.58;;;;;;;23.78;30.57;100064.97;4418764;32;35316;-75
2022/05/01 10:22:10;;;;;;;4.20;2.33;;;;;;;23.84;30.00;100071.81;4429532;32;32756;-74
2022/05/01 10:25:08;;;;;;;3.40;2.40;;;;;;;23.71;29.50;100079.72;4431433;32;35674;-76
2022/05/01 10:28:17;;;;;;;5.37;2.47;;;;;;;23.60;30.29;100070.44;4420203;32;34831;-74
2022/05/01 10:35:18;;;;;;;5.43;2.55;;;;;;;23.78;28.48;100062.97;4431252;32;34110;-74
2022/05/01 10:38:21;;;;;;;7.03;2.37;;;;;;;23.85;28.72;100067.84;4432087;32;35288;-75
2022/05/01 10:41:16;;;;;;;3.42;2.20;;;;;;;23.52;29.36;100058.38;4432030;32;34357;-75
2022/05/01 10:44:07;;;;;;;5.85;2.70;;;;;;;23.61;28.05;100055.25;4411148;32;34033;-75
2022/05/01 10:47:16;;;;;;;7.20;2.35;;;;;;;23.85;29.75;100053.03;4430067;32;34119;-75
2022/05/01 10:50:12;;;;;;;4.20;2.55;;;;;;;24.10;29.13;100051.16;4430484;32;34686;-74
2022/05/01 10:53:18;;;;;;;6.03;2.58;;;;;;;24.35;28.00;100047.66;4430757;32;34621;-73
2022/05/01 10:56:22;;;;;;;3.62;2.50;;;;;;;23.45;30.90;100052.75;4419171;32;34100;-74
2022/05/01 10:59:38;;;;;;;3.90;2.67;;;;;;;23.96;29.40;100037.09;4420063;32;34160;-74
2022/05/01 11:02:35;;;;;;;4.55;3.00;;;;;;;24.04;30.58;100044.34;4429260;32;35728;-74
2022/05/01 11:05:50;;;;;;;4.30;2.60;;;;;;;24.54;28.34;100041.75;4429439;32;33630;-73
2022/05/01 11:08:46;;;;;;;4.07;2.55;;;;;;;24.07;28.94;100040.75;4408325;32;35205;-73
2022/05/01 11:11:38;;;;;;;5.82;3.08;;;;;;;23.69;29.08;100042.91;4413025;32;34053;-74
2022/05/01 11:14:50;;;;;;;6.10;2.58;;;;;;;23.95;29.85;100035.50;4432517;32;35532;-74
2022/05/01 11:17:42;;;;;;;6.47;2.80;;;;;;;23.95;29.46;100032.69;4419837;32;33876;-74
2022/05/01 11:20:34;;;;;;;4.18;2.80;;;;;;;23.65;28.69;100033.72;4418374;32;34693;-74
2022/05/01 11:23:33;;;;;;;5.40;2.90;;;;;;;24.13;29.20;100027.97;4419439;32;35140;-74
2022/05/01 11:26:25;;;;;;;5.75;3.03;;;;;;;24.23;26.88;100024.41;4420306;32;34742;-75
2022/05/01 11:29:13;;;;;;;4.47;3.10;;;;;;;24.02;27.35;100015.94;4428010;32;35931;-74
2022/05/01 11:32:19;;;;;;;4.07;2.50;;;;;;;24.49;28.11;100022.53;4418178;32;34200;-74
2022/05/01 11:35:11;;;;;;;4.93;3.23;;;;;;;24.36;28.47;100024.88;4419487;32;33930;-75
2022/05/01 11:41:07;;;;;;;3.35;2.40;;;;;;;24.15;26.51;100019.19;4430314;32;33792;-76
2022/05/01 11:44:22;;;;;;;4.45;2.90;;;;;;;23.62;26.09;100014.09;4431074;32;35409;-75
2022/05/01 11:47:12;;;;;;;3.53;2.60;;;;;;;23.56;27.02;100016.44;4421007;32;33919;-76
2022/05/01 11:50:20;;;;;;;6.68;2.90;;;;;;;23.93;26.56;100010.69;4418082;32;34584;-75
2022/05/01 11:53:22;;;;;;;5.45;2.90;;;;;;;23.89;26.75;99995.09;4420590;32;36588;-75
2022/05/01 12:02:31;;;;;;;5.03;2.95;;;;;;;23.94;27.21;99991.94;4430974;32;34776;-75
2022/05/01 12:05:19;;;;;;;5.18;2.87;;;;;;;23.75;28.25;99990.22;4432315;32;35992;-75
2022/05/01 12:08:13;;;;;;;4.87;2.83;;;;;;;23.86;28.30;99993.09;4433498;32;35388;-75
2022/05/01 12:11:28;;;;;;;4.87;3.12;;;;;;;23.85;27.94;99988.66;4420119;32;34087;-74
2022/05/01 12:14:19;;;;;;;4.47;2.67;;;;;;;23.79;28.19;99994.66;4430470;32;34238;-74
2022/05/01 12:17:14;;;;;;;4.93;2.97;;;;;;;23.37;27.34;99981.19;4421859;32;35560;-75
2022/05/01 12:20:05;;;;;;;4.57;2.53;;;;;;;23.66;28.71;99979.38;4355308;32;2169827;-75
2022/05/01 12:22:55;;;;;;;4.15;3.00;;;;;;;23.95;29.19;99982.31;4432518;32;35022;-76
2022/05/01 12:25:46;;;;;;;4.50;2.30;;;;;;;24.58;28.07;99974.53;4432659;32;34234;-75
2022/05/01 12:28:37;;;;;;;4.60;3.40;;;;;;;25.48;25.88;99978.94;4433280;32;35832;-75
2022/05/01 12:31:27;;;;;;;6.15;3.25;;;;;;;25.46;26.49;99970.13;4430271;32;35226;-75
2022/05/01 12:34:26;;;;;;;5.12;3.42;;;;;;;25.59;25.48;99959.28;4419545;32;35096;-75
2022/05/01 12:37:18;;;;;;;6.43;3.03;;;;;;;25.86;25.85;99956.78;4421642;32;35278;-75
2022/05/01 12:40:14;;;;;;;6.22;3.70;;;;;;;25.99;26.48;99959.97;4421118;32;33869;-75
2022/05/01 12:46:28;;;;;;;4.03;3.12;;;;;;;26.03;27.92;99953.09;4432908;32;36971;-76
2022/05/01 12:49:27;;;;;;;7.18;3.12;;;;;;;24.33;26.34;99947.25;4410907;32;34231;-76
2022/05/01 12:52:34;;;;;;;5.53;3.22;;;;;;;25.32;27.04;99939.28;4420009;32;34413;-75
2022/05/01 12:55:35;;;;;;;6.30;3.33;;;;;;;25.60;25.25;99937.63;4419924;32;34283;-75
2022/05/01 12:58:37;;;;;;;4.87;3.45;;;;;;;25.82;25.91;99941.97;4430820;32;34989;-76
2022/05/01 13:01:27;;;;;;;5.68;3.10;;;;;;;24.87;26.88;99924.91;4420771;32;35454;-76
2022/05/01 13:04:29;;;;;;;5.72;3.20;;;;;;;25.04;27.29;99926.88;4430552;32;34555;-75
2022/05/01 13:07:31;;;;;;;4.68;3.05;;;;;;;24.67;27.23;99919.69;4419318;32;35030;-75
2022/05/01 13:10:19;;;;;;;4.95;3.22;;;;;;;24.65;27.36;99924.91;4420982;32;34107;-75
2022/05/01 13:13:09;;;;;;;5.78;3.47;;;;;;;24.67;25.83;99916.91;4434650;32;35561;-74
2022/05/01 13:16:05;;;;;;;6.68;3.10;;;;;;;24.95;26.76;99908.87;4422267;32;34956;-75
2022/05/01 13:18:57;;;;;;;4.47;3.40;;;;;;;25.39;26.29;99900.03;4434350;32;35392;-75
2022/05/01 13:24:54;;;;;;;8.10;3.15;;;;;;;25.51;25.88;99899.56;4417967;32;33089;-75
2022/05/01 13:27:49;;;;;;;4.80;3.20;;;;;;;25.70;27.47;99894.69;4415896;32;34121;-75
2022/05/01 13:30:37;;;;;;;6.45;3.55;;;;;;;25.61;26.16;99894.31;4416372;32;34791;-75
2022/05/01 13:33:27;;;;;;;4.57;3.15;;;;;;;25.10;25.90;99888.84;4417590;32;34278;-75
2022/05/01 13:36:18;;;;;;;4.12;2.83;;;;;;;24.96;27.12;99883.28;4406608;32;34579;-75
2022/05/01 13:39:11;;;;;;;4.07;3.00;;;;;;;24.69;27.56;99885.69;4416741;32;34919;-75
2022/05/01 13:45:15;;;;;;;5.53;3.03;;;;;;;24.57;27.66;99878.50;4416973;32;32757;-75
2022/05/01 13:48:04;;;;;;;3.85;2.80;;;;;;;24.46;26.61;99880.50;4415396;32;34709;-76
2022/05/01 13:51:03;;;;;;;3.08;2.40;;;;;;;24.73;27.29;99874.47;4417607;32;34635;-76
2022/05/01 13:53:53;;;;;;;;;;;;;;;24.99;25.83;99876.03;4417611;32;34695;-76
2022/05/01 13:56:41;;;;;;;6.90;3.17;;;;;;;24.78;25.94;99876.88;4416379;32;34108;-76
2022/05/01 13:59:30;;;;;;;4.10;3.00;;;;;;;24.69;26.86;99869.69;4417116;32;34756;-76
2022/05/01 14:02:21;;;;;;;5.97;3.12;;;;;;;24.97;26.10;99873.66;4415476;32;35495;-76
2022/05/01 14:05:13;;;;;;;4.60;2.70;;;;;;;25.16;26.77;99874.44;4417374;32;34717;-76
2022/05/01 14:08:10;;;;;;;5.80;3.00;;;;;;;25.24;25.57;99867.59;4417344;32;34994;-76
2022/05/01 14:13:55;;;;;;;4.72;3.05;;;;;;;25.88;23.94;99875.78;4416612;32;35952;-76
2022/05/01 14:16:46;;;;;;;5.45;3.33;;;;;;;25.25;24.22;99866.41;4419177;32;34741;-76
2022/05/01 14:19:34;;;;;;;10.23;3.30;;;;;;;25.60;25.08;99870.28;4408272;32;35163;-76
2022/05/01 14:22:24;;;;;;;4.03;2.60;;;;;;;25.24;24.80;99853.59;4427807;32;34263;-76
2022/05/01 14:25:17;;;;;;;3.53;2.70;;;;;;;24.01;26.68;99869.59;4416770;32;34911;-76